Time;durP1;ratioP1;P1;durP2;ratioP2;P2;SDS_P1;SDS_P2;PMS_P1;PMS_P2;Temp;Humidity;BMP_temperature;BMP_pressure;BME280_temperature;BME280_humidity;BME280_pressure;Samples;Min_cycle;Max_cycle;Signal;HPM_P1;HPM_P2
2021/09/13 00:53:44;;;;;;;7.05;3.90;;;;;;;15.58;77.23;99996.81;1087633;54;20030;-79
2021/09/13 00:54:46;;;;;;;4.75;3.38;;;;;;;15.62;76.97;99991.91;1087587;54;20090;-78
2021/09/13 00:55:50;;;;;;;5.28;3.20;;;;;;;15.61;76.68;99988.34;1087733;54;20097;-80
2021/09/13 00:56:52;;;;;;;4.93;3.38;;;;;;;15.62;76.66;99992.72;1087829;54;20018;-78
2021/09/13 00:57:57;;;;;;;4.95;3.25;;;;;;;15.61;76.62;99985.66;1087708;54;20031;-78
2021/09/13 00:58:59;;;;;;;6.57;3.60;;;;;;;15.62;76.81;99994.59;1087884;54;20061;-79
2021/09/13 01:00:05;;;;;;;4.68;3.08;;;;;;;15.67;76.59;99982.25;1087782;54;20038;-79
2021/09/13 01:01:06;;;;;;;6.78;3.67;;;;;;;15.66;76.79;99990.50;1087871;54;20031;-79
2021/09/13 01:02:10;;;;;;;5.80;3.33;;;;;;;15.70;76.74;99989.97;1088072;54;20034;-78
2021/09/13 01:03:12;;;;;;;5.53;3.47;;;;;;;15.73;76.52;99989.63;1087904;54;20038;-79
2021/09/13 01:04:17;;;;;;;6.35;3.58;;;;;;;15.65;76.81;99991.53;1087895;54;20034;-79
2021/09/13 01:05:18;;;;;;;6.32;3.40;;;;;;;15.60;76.91;99984.84;1088062;54;20034;-79
2021/09/13 01:06:23;;;;;;;5.70;3.45;;;;;;;15.60;76.88;99983.97;1090149;46;20083;-79
2021/09/13 01:07:24;;;;;;;5.68;3.55;;;;;;;15.58;77.16;99981.47;1087986;54;20022;-78
2021/09/13 01:08:28;;;;;;;4.82;2.92;;;;;;;15.57;77.18;99987.06;1087965;54;20040;-81
2021/09/13 01:09:33;;;;;;;5.15;2.97;;;;;;;15.59;77.01;99983.16;1087845;54;20041;-81
2021/09/13 01:10:37;;;;;;;5.55;3.38;;;;;;;15.63;77.00;99978.25;1087814;54;20042;-81
2021/09/13 01:11:39;;;;;;;4.70;3.50;;;;;;;15.74;76.33;99977.81;1087972;54;20031;-82
2021/09/13 01:12:43;;;;;;;5.30;3.25;;;;;;;15.72;76.35;99976.34;1087956;54;20037;-82
2021/09/13 01:13:44;;;;;;;6.00;3.17;;;;;;;15.67;76.29;99976.03;1087901;54;20733;-80
2021/09/13 01:14:49;;;;;;;4.72;3.20;;;;;;;15.69;76.59;99976.69;1087972;54;20034;-81
2021/09/13 01:15:53;;;;;;;5.20;3.38;;;;;;;15.82;76.20;99978.78;1087805;54;20034;-82
2021/09/13 01:16:57;;;;;;;5.95;3.38;;;;;;;15.82;76.17;99976.06;1088019;54;20026;-81
2021/09/13 01:17:58;;;;;;;5.32;3.10;;;;;;;15.81;75.88;99975.25;1087936;54;20042;-80
2021/09/13 01:19:02;;;;;;;5.55;3.40;;;;;;;15.89;75.88;99968.97;1087886;54;20037;-81
2021/09/13 01:20:05;;;;;;;5.10;3.05;;;;;;;15.93;75.46;99981.06;1087954;54;20030;-82
2021/09/13 01:21:09;;;;;;;4.35;3.20;;;;;;;15.98;75.25;99967.06;1087900;54;20026;-81
2021/09/13 01:22:13;;;;;;;7.10;3.33;;;;;;;16.00;75.34;99973.94;1087917;54;20029;-82
2021/09/13 01:23:27;;;;;;;5.65;3.38;;;;;;;16.10;75.17;99972.84;1087808;54;20031;-80
2021/09/13 01:24:30;;;;;;;4.65;2.75;;;;;;;16.19;74.62;99966.34;1087574;54;20379;-82
2021/09/13 01:25:35;;;;;;;4.25;3.05;;;;;;;16.19;74.58;99974.44;1087718;54;20046;-81
2021/09/13 01:26:36;;;;;;;5.53;3.65;;;;;;;16.16;74.60;99975.66;1087694;54;20038;-81
2021/09/13 01:27:40;;;;;;;6.10;3.50;;;;;;;16.05;75.23;99974.25;1087620;54;20041;-82
2021/09/13 01:28:42;;;;;;;6.18;3.28;;;;;;;16.00;75.32;99975.81;1087672;54;20041;-81
2021/09/13 01:29:46;;;;;;;5.32;3.53;;;;;;;15.98;75.28;99972.44;1087721;54;20026;-83
2021/09/13 01:30:48;;;;;;;5.43;3.00;;;;;;;15.97;75.50;99973.47;1087877;54;20038;-82
2021/09/13 01:31:52;;;;;;;5.22;3.42;;;;;;;15.91;75.26;99975.03;1087741;54;20054;-82
2021/09/13 01:32:53;;;;;;;5.35;3.35;;;;;;;15.97;75.36;99981.53;1087680;54;20038;-81
2021/09/13 01:33:57;;;;;;;6.63;3.35;;;;;;;15.92;75.21;99970.47;1087929;54;20057;-82
2021/09/13 01:34:59;;;;;;;5.65;3.20;;;;;;;15.89;75.50;99974.34;1087783;54;20034;-80
2021/09/13 01:36:03;;;;;;;4.20;2.95;;;;;;;15.99;75.48;99966.84;1087838;54;20034;-82
2021/09/13 01:37:05;;;;;;;6.40;3.47;;;;;;;15.96;75.16;99971.78;1087725;54;20030;-82
2021/09/13 01:38:09;;;;;;;4.10;2.60;;;;;;;15.99;75.14;99974.13;1087837;54;20042;-81
2021/09/13 01:39:13;;;;;;;5.13;3.40;;;;;;;15.98;75.58;99959.78;1088335;46;20038;-81
2021/09/13 01:40:17;;;;;;;5.43;2.85;;;;;;;16.09;75.32;99965.75;1087874;54;20030;-82
2021/09/13 01:41:19;;;;;;;4.85;3.17;;;;;;;16.13;75.08;99967.09;1087891;54;20060;-83
2021/09/13 01:42:23;;;;;;;7.22;3.00;;;;;;;16.16;74.88;99972.09;1087909;54;20037;-82
2021/09/13 01:43:25;;;;;;;5.47;3.38;;;;;;;16.15;74.75;99960.47;1087768;54;20039;-83
2021/09/13 01:44:29;;;;;;;5.20;2.88;;;;;;;16.16;74.89;99962.16;1087888;54;20042;-82
2021/09/13 01:45:31;;;;;;;5.60;2.88;;;;;;;16.21;74.75;99964.31;1088029;54;20030;-81
2021/09/13 01:46:35;;;;;;;4.95;3.17;;;;;;;16.21;74.43;99953.53;1087944;54;20022;-82
2021/09/13 01:47:36;;;;;;;4.95;3.10;;;;;;;16.21;74.73;99958.91;1087948;54;20054;-82
2021/09/13 01:48:40;;;;;;;4.35;3.08;;;;;;;16.21;74.77;99964.31;1087947;54;20029;-81
2021/09/13 01:49:42;;;;;;;4.57;3.03;;;;;;;16.20;74.72;99962.63;1087906;54;20054;-83
2021/09/13 01:50:47;;;;;;;5.00;3.10;;;;;;;16.17;74.47;99961.16;1088024;54;20042;-81
2021/09/13 01:51:49;;;;;;;5.18;3.33;;;;;;;16.16;74.83;99967.56;1087891;54;20045;-82
2021/09/13 01:52:53;;;;;;;5.80;3.03;;;;;;;16.19;74.56;99967.19;1087890;54;20037;-82
2021/09/13 01:53:54;;;;;;;4.85;3.30;;;;;;;16.21;74.32;99975.09;1089467;46;20042;-81
2021/09/13 01:55:01;;;;;;;4.68;2.95;;;;;;;16.17;74.77;99965.69;1088185;46;20034;-81
2021/09/13 01:56:03;;;;;;;6.18;3.58;;;;;;;16.10;74.71;99973.69;1089230;46;20061;-82
2021/09/13 01:57:08;;;;;;;5.30;3.40;;;;;;;16.05;74.88;99960.75;1088447;46;20015;-80
2021/09/13 01:58:10;;;;;;;6.63;3.90;;;;;;;16.00;75.14;99965.84;1087809;54;20034;-83
2021/09/13 01:59:14;;;;;;;5.53;3.38;;;;;;;15.97;75.39;99960.81;1088349;46;20025;-82
2021/09/13 02:00:16;;;;;;;7.03;4.20;;;;;;;16.01;75.17;99964.00;1088499;46;20045;-80
2021/09/13 02:01:21;;;;;;;5.97;3.55;;;;;;;16.06;74.90;99961.59;1087831;54;20034;-81
2021/09/13 02:02:22;;;;;;;4.63;3.13;;;;;;;16.13;74.45;99959.00;1087964;54;20038;-82
2021/09/13 02:03:28;;;;;;;4.78;3.03;;;;;;;16.20;74.42;99965.31;1087891;54;20037;-82
2021/09/13 02:04:30;;;;;;;4.40;2.50;;;;;;;16.28;74.19;99965.25;1087733;54;20042;-83
2021/09/13 02:05:34;;;;;;;5.32;2.70;;;;;;;16.31;74.01;99964.88;1087860;54;20070;-82
2021/09/13 02:06:36;;;;;;;4.80;2.90;;;;;;;16.36;73.73;99958.94;1087776;54;20033;-83
2021/09/13 02:07:40;;;;;;;4.93;2.92;;;;;;;16.42;73.50;99965.44;1087753;54;20034;-80
2021/09/13 02:08:42;;;;;;;6.68;3.25;;;;;;;16.40;73.60;99962.09;1088274;46;20031;-83
2021/09/13 02:09:47;;;;;;;4.57;2.90;;;;;;;16.41;73.44;99963.78;1087632;54;20037;-81
2021/09/13 02:10:54;;;;;;;4.25;2.63;;;;;;;16.41;73.31;99958.38;1087700;54;20039;-83
2021/09/13 02:11:56;;;;;;;4.18;2.75;;;;;;;16.40;73.52;99960.22;1087600;54;20038;-82
2021/09/13 02:13:00;;;;;;;4.82;3.05;;;;;;;16.42;73.36;99960.06;1087864;54;20035;-81
2021/09/13 02:14:04;;;;;;;4.93;2.60;;;;;;;16.44;73.13;99964.22;1087741;54;20034;-83
2021/09/13 02:15:06;;;;;;;4.90;2.90;;;;;;;16.49;73.35;99950.19;1087514;54;20034;-81
2021/09/13 02:16:11;;;;;;;5.00;2.90;;;;;;;16.51;73.05;99956.25;1087697;54;20031;-82
2021/09/13 02:17:12;;;;;;;5.22;3.15;;;;;;;16.48;73.30;99953.91;1087773;54;20018;-83
2021/09/13 02:18:16;;;;;;;4.20;2.85;;;;;;;16.52;72.73;99952.53;1087824;54;20036;-81
2021/09/13 02:19:18;;;;;;;4.22;2.50;;;;;;;16.55;72.75;99952.13;1089134;46;20057;-81
2021/09/13 02:20:22;;;;;;;3.85;2.47;;;;;;;16.56;72.74;99951.13;1087781;54;20037;-84
2021/09/13 02:21:24;;;;;;;4.03;2.53;;;;;;;16.58;72.63;99954.47;1088258;46;20034;-84
2021/09/13 02:22:28;;;;;;;4.28;2.60;;;;;;;16.56;72.99;99961.91;1087834;54;20037;-81
2021/09/13 02:23:29;;;;;;;4.00;2.55;;;;;;;16.56;72.57;99959.22;1087323;54;20061;-82
2021/09/13 02:24:33;;;;;;;6.25;3.00;;;;;;;16.56;73.00;99958.38;1087740;54;20110;-82
2021/09/13 02:25:35;;;;;;;5.05;2.70;;;;;;;16.50;72.95;99960.78;1087736;54;20034;-81
2021/09/13 02:26:42;;;;;;;5.00;2.97;;;;;;;16.50;73.07;99962.66;1088387;47;20019;-82
2021/09/13 02:27:44;;;;;;;4.50;2.90;;;;;;;16.48;73.17;99953.91;1087802;54;20038;-82
2021/09/13 02:28:48;;;;;;;5.68;2.90;;;;;;;16.47;73.02;99953.09;1087815;54;20035;-81
2021/09/13 02:29:49;;;;;;;4.45;2.50;;;;;;;16.48;73.27;99956.59;1087792;54;20038;-81
2021/09/13 02:30:53;;;;;;;6.30;2.63;;;;;;;16.48;73.19;99951.22;1087597;54;20049;-82
2021/09/13 02:31:55;;;;;;;4.53;2.85;;;;;;;16.46;73.19;99955.94;1087524;54;20030;-81
2021/09/13 02:32:59;;;;;;;4.68;2.40;;;;;;;16.43;73.16;99950.94;1087738;54;20015;-82
2021/09/13 02:34:01;;;;;;;4.10;2.40;;;;;;;16.43;73.39;99959.03;1087793;54;20077;-81
2021/09/13 02:35:07;;;;;;;4.45;2.92;;;;;;;16.41;73.28;99964.59;1087748;54;20030;-82
2021/09/13 02:36:09;;;;;;;4.93;2.78;;;;;;;16.43;73.37;99961.72;1089960;47;20034;-82
2021/09/13 02:37:13;;;;;;;5.50;2.85;;;;;;;16.44;73.48;99960.69;1087818;54;20042;-82
2021/09/13 02:38:14;;;;;;;5.28;2.65;;;;;;;16.40;73.40;99960.22;1090134;39;20289;-83
2021/09/13 02:39:18;;;;;;;6.72;2.70;;;;;;;16.38;73.77;99963.13;1087832;54;20037;-81
2021/09/13 02:40:20;;;;;;;4.68;2.40;;;;;;;16.44;73.66;99958.00;1087793;54;20034;-79
2021/09/13 02:41:24;;;;;;;4.10;2.47;;;;;;;16.44;73.41;99958.84;1087739;54;20034;-81
2021/09/13 02:42:28;;;;;;;6.30;2.38;;;;;;;16.47;73.39;99958.47;1087840;54;20030;-81
2021/09/13 02:43:33;;;;;;;4.30;2.50;;;;;;;16.49;73.52;99953.72;1087815;54;20030;-80
2021/09/13 02:44:35;;;;;;;4.22;2.50;;;;;;;16.50;73.24;99955.38;1088104;54;20019;-82
2021/09/13 02:45:39;;;;;;;3.90;2.33;;;;;;;16.51;73.06;99943.56;1088172;54;20054;-81
2021/09/13 02:46:40;;;;;;;4.50;2.30;;;;;;;16.54;73.37;99942.34;1088027;54;20031;-82
2021/09/13 02:47:45;;;;;;;5.00;2.72;;;;;;;16.56;73.34;99944.88;1088181;54;20030;-81
2021/09/13 02:48:46;;;;;;;5.30;2.78;;;;;;;16.50;73.06;99958.09;1088169;54;20034;-82
2021/09/13 02:49:50;;;;;;;5.57;2.70;;;;;;;16.50;73.21;99962.66;1088038;54;20058;-83
2021/09/13 02:50:52;;;;;;;7.75;2.90;;;;;;;16.51;73.47;99953.53;1088070;54;20030;-81
2021/09/13 02:51:56;;;;;;;5.95;2.85;;;;;;;16.52;73.26;99952.53;1088029;54;20025;-82
2021/09/13 02:52:58;;;;;;;6.50;3.30;;;;;;;16.48;73.42;99956.59;1088029;54;20026;-83
2021/09/13 02:54:02;;;;;;;7.65;3.00;;;;;;;16.43;73.19;99951.75;1087988;54;20034;-81
2021/09/13 02:55:06;;;;;;;5.10;2.90;;;;;;;16.44;73.38;99956.13;1088033;54;20268;-80
2021/09/13 02:56:10;;;;;;;6.55;3.05;;;;;;;16.36;73.53;99959.75;1087983;54;20037;-82
2021/09/13 02:57:12;;;;;;;5.10;2.47;;;;;;;16.38;73.31;99960.41;1088157;54;20034;-81
2021/09/13 02:58:18;;;;;;;5.57;2.85;;;;;;;16.34;73.70;99953.69;1091544;39;20684;-82
2021/09/13 02:59:20;;;;;;;5.20;3.00;;;;;;;16.33;73.66;99962.84;1088049;54;20034;-83
2021/09/13 03:00:24;;;;;;;5.65;2.97;;;;;;;16.36;73.68;99962.44;1088030;54;20037;-83
2021/09/13 03:01:26;;;;;;;4.28;2.65;;;;;;;16.37;73.40;99957.91;1088004;54;20046;-83
2021/09/13 03:02:30;;;;;;;6.20;2.67;;;;;;;16.38;73.42;99954.19;1088011;54;20035;-82
2021/09/13 03:03:31;;;;;;;5.20;3.10;;;;;;;16.35;73.34;99958.06;1088117;54;20042;-80
2021/09/13 03:04:35;;;;;;;5.47;2.78;;;;;;;16.33;73.62;99967.38;1088086;54;20031;-82
2021/09/13 03:05:37;;;;;;;7.22;3.20;;;;;;;16.30;73.86;99949.72;1088071;54;20046;-82
2021/09/13 03:06:41;;;;;;;7.85;3.13;;;;;;;16.28;73.47;99954.44;1088161;54;20031;-82
2021/09/13 03:07:43;;;;;;;4.60;3.00;;;;;;;16.27;73.79;99955.47;1088089;54;20030;-82
2021/09/13 03:08:47;;;;;;;5.95;3.05;;;;;;;16.29;73.72;99955.31;1087984;54;20027;-82
2021/09/13 03:09:48;;;;;;;5.30;3.30;;;;;;;16.29;73.73;99958.81;1087864;54;20047;-81
2021/09/13 03:10:52;;;;;;;5.20;2.88;;;;;;;16.25;73.49;99954.81;1088033;54;20041;-83
2021/09/13 03:11:54;;;;;;;5.03;2.92;;;;;;;16.27;73.60;99952.78;1088014;54;20046;-81
2021/09/13 03:12:58;;;;;;;5.90;3.30;;;;;;;16.26;73.59;99955.66;1088018;54;20043;-81
2021/09/13 03:14:02;;;;;;;6.07;3.00;;;;;;;16.22;73.70;99955.19;1090013;46;20023;-81
2021/09/13 03:15:10;;;;;;;6.45;3.30;;;;;;;16.22;73.88;99960.59;1087882;54;20027;-81
2021/09/13 03:16:11;;;;;;;6.07;2.90;;;;;;;16.18;73.58;99954.72;1088069;54;20031;-81
2021/09/13 03:17:15;;;;;;;7.18;3.35;;;;;;;16.21;73.86;99956.22;1088121;54;20031;-80
2021/09/13 03:18:17;;;;;;;6.28;3.22;;;;;;;16.22;73.45;99955.19;1088102;54;20034;-82
2021/09/13 03:19:21;;;;;;;5.47;3.10;;;;;;;16.16;73.92;99958.59;1088083;54;20339;-81
2021/09/13 03:20:23;;;;;;;8.60;3.15;;;;;;;16.15;73.89;99956.97;1088022;54;20030;-82
2021/09/13 03:21:27;;;;;;;5.82;2.90;;;;;;;16.12;73.63;99960.00;1087899;54;20042;-81
2021/09/13 03:22:29;;;;;;;5.88;3.15;;;;;;;16.04;74.04;99953.69;1088146;54;20042;-80
2021/09/13 03:23:33;;;;;;;4.63;2.60;;;;;;;15.99;74.07;99948.00;1087883;54;20034;-82
2021/09/13 03:24:35;;;;;;;4.07;2.58;;;;;;;15.96;74.27;99952.91;1087947;54;20035;-81
2021/09/13 03:25:39;;;;;;;5.95;3.00;;;;;;;16.04;73.94;99950.13;1087995;54;20038;-81
2021/09/13 03:26:41;;;;;;;5.65;3.03;;;;;;;16.05;74.05;99949.97;1087921;54;20037;-81
2021/09/13 03:27:45;;;;;;;4.57;2.40;;;;;;;16.07;73.96;99949.78;1088468;46;20031;-81
2021/09/13 03:28:46;;;;;;;4.47;2.75;;;;;;;16.10;73.55;99945.88;1088691;46;20057;-82
2021/09/13 03:29:56;;;;;;;6.50;2.60;;;;;;;16.11;73.48;99944.84;1088022;54;20038;-82
2021/09/13 03:31:07;;;;;;;5.32;2.80;;;;;;;16.08;73.61;99948.75;1088196;54;20047;-82
2021/09/13 03:32:12;;;;;;;6.47;3.05;;;;;;;16.04;73.70;99951.00;1088887;46;20067;-83
2021/09/13 03:33:14;;;;;;;5.10;2.78;;;;;;;16.06;73.70;99957.00;1090248;46;20026;-81
2021/09/13 03:34:18;;;;;;;5.20;3.00;;;;;;;16.01;73.63;99953.22;1088142;54;20042;-82
2021/09/13 03:35:19;;;;;;;4.80;2.70;;;;;;;16.04;73.54;99956.38;1088085;54;20043;-80
2021/09/13 03:36:23;;;;;;;4.25;2.50;;;;;;;16.02;73.72;99955.72;1088368;46;20042;-82
2021/09/13 03:37:25;;;;;;;5.30;2.80;;;;;;;16.04;73.85;99953.69;1090421;39;20202;-82
2021/09/13 03:38:29;;;;;;;4.68;2.70;;;;;;;16.09;73.77;99960.38;1087950;54;20039;-81
2021/09/13 03:39:32;;;;;;;4.63;2.80;;;;;;;16.12;73.69;99968.09;1087971;54;20031;-81
2021/09/13 03:40:36;;;;;;;4.22;2.83;;;;;;;16.08;73.51;99959.53;1087986;54;20035;-82
2021/09/13 03:41:37;;;;;;;4.72;3.22;;;;;;;16.05;73.67;99966.16;1088073;54;20038;-82
2021/09/13 03:42:41;;;;;;;4.20;2.78;;;;;;;16.06;73.68;99953.50;1087922;54;20019;-81
2021/09/13 03:43:43;;;;;;;5.28;2.63;;;;;;;16.04;73.63;99959.06;1088080;54;20027;-80
2021/09/13 03:44:47;;;;;;;4.18;2.70;;;;;;;16.01;73.86;99953.22;1087986;47;20018;-82
2021/09/13 03:45:51;;;;;;;6.95;2.80;;;;;;;15.93;74.05;99961.34;1088048;54;20022;-81
2021/09/13 03:46:56;;;;;;;6.18;3.08;;;;;;;15.87;74.02;99961.06;1087979;54;20030;-82
2021/09/13 03:47:57;;;;;;;5.28;3.15;;;;;;;15.83;74.49;99964.28;1087978;54;20037;-81
2021/09/13 03:49:01;;;;;;;5.70;3.58;;;;;;;15.79;74.46;99962.94;1088050;47;20034;-81
2021/09/13 03:50:03;;;;;;;4.68;3.00;;;;;;;15.81;74.24;99958.22;1087993;46;20039;-80
2021/09/13 03:51:07;;;;;;;4.93;3.25;;;;;;;15.78;74.27;99961.28;1087855;54;20050;-82
2021/09/13 03:52:09;;;;;;;7.75;3.28;;;;;;;15.77;74.59;99962.31;1088376;46;20034;-80
2021/09/13 03:53:13;;;;;;;6.65;3.00;;;;;;;15.80;74.39;99957.41;1088033;54;20018;-81
2021/09/13 03:54:15;;;;;;;5.90;3.30;;;;;;;15.78;74.39;99963.97;1089128;46;20282;-81
2021/09/13 03:55:19;;;;;;;5.60;3.42;;;;;;;15.77;74.39;99956.94;1087592;54;20042;-82
2021/09/13 03:56:20;;;;;;;5.13;2.90;;;;;;;15.76;74.36;99961.47;1088903;47;20053;-81
2021/09/13 03:57:24;;;;;;;4.53;2.75;;;;;;;15.79;74.58;99960.25;1088020;54;20027;-81
2021/09/13 03:58:26;;;;;;;5.68;2.65;;;;;;;15.81;74.16;99964.47;1088056;54;20033;-82
2021/09/13 03:59:30;;;;;;;5.65;2.80;;;;;;;15.80;74.47;99967.31;1088823;39;20948;-81
2021/09/13 04:00:33;;;;;;;5.55;3.35;;;;;;;15.78;74.56;99961.28;1090304;39;20258;-83
2021/09/13 04:01:39;;;;;;;4.13;2.67;;;;;;;15.73;74.38;99967.19;1090618;39;20642;-81
2021/09/13 04:02:44;;;;;;;4.53;2.83;;;;;;;15.74;74.14;99964.34;1088166;54;20034;-81
2021/09/13 04:03:50;;;;;;;5.60;2.97;;;;;;;15.75;74.14;99959.78;1088046;54;20090;-80
2021/09/13 04:04:52;;;;;;;7.22;3.22;;;;;;;15.70;74.22;99960.31;1089134;46;20045;-81
2021/09/13 04:05:57;;;;;;;5.43;2.63;;;;;;;15.73;74.34;99964.50;1089422;46;20030;-82
2021/09/13 04:07:02;;;;;;;4.65;2.63;;;;;;;15.70;74.30;99960.31;1089546;46;20018;-81
2021/09/13 04:08:14;;;;;;;7.28;3.15;;;;;;;15.71;74.38;99953.91;1088172;54;20046;-82
2021/09/13 04:10:36;;;;;;;4.15;2.30;;;;;;;15.70;74.04;99954.13;1087974;54;20026;-81
2021/09/13 04:11:47;;;;;;;4.57;2.83;;;;;;;15.69;74.35;99960.53;1088449;46;20018;-81
2021/09/13 04:12:48;;;;;;;4.97;3.03;;;;;;;15.70;74.36;99960.31;1088051;54;20035;-82
2021/09/13 04:13:53;;;;;;;4.25;2.65;;;;;;;15.72;73.96;99962.84;1088134;54;20135;-82
2021/09/13 04:14:54;;;;;;;4.43;2.38;;;;;;;15.73;74.16;99965.38;1090185;46;20038;-82
2021/09/13 04:15:58;;;;;;;4.40;2.47;;;;;;;15.75;74.11;99966.03;1088045;54;20111;-79
2021/09/13 04:17:02;;;;;;;4.20;2.47;;;;;;;15.79;74.16;99966.50;1088154;54;20015;-83
2021/09/13 04:18:07;;;;;;;5.55;2.35;;;;;;;15.84;73.93;99968.69;1088047;54;20042;-82
2021/09/13 04:19:09;;;;;;;5.57;2.90;;;;;;;15.77;74.02;99963.16;1089273;46;20034;-82
2021/09/13 04:20:14;;;;;;;5.75;2.83;;;;;;;15.82;74.23;99970.69;1087967;54;20038;-82
2021/09/13 04:21:16;;;;;;;5.47;2.50;;;;;;;15.83;73.86;99958.88;1089111;46;20014;-81
2021/09/13 04:22:20;;;;;;;4.60;2.83;;;;;;;15.79;74.26;99954.88;1088002;54;20034;-82
2021/09/13 04:23:21;;;;;;;7.63;3.22;;;;;;;15.79;74.19;99958.41;1089077;46;20038;-81
2021/09/13 04:24:25;;;;;;;4.55;2.85;;;;;;;15.84;74.24;99957.91;1088002;54;20030;-81
2021/09/13 04:25:27;;;;;;;4.82;2.65;;;;;;;15.80;74.03;99952.00;1087995;54;20034;-78
2021/09/13 04:26:31;;;;;;;5.00;2.70;;;;;;;15.81;74.11;99958.22;1088042;54;20035;-79
2021/09/13 04:27:35;;;;;;;4.50;2.80;;;;;;;15.79;74.01;99952.16;1087736;54;20042;-79
2021/09/13 04:28:37;;;;;;;5.63;2.90;;;;;;;15.77;74.33;99952.38;1088034;54;20035;-80
2021/09/13 04:29:41;;;;;;;4.15;2.78;;;;;;;15.79;74.14;99954.88;1087894;54;20018;-85
2021/09/13 04:30:43;;;;;;;6.75;3.20;;;;;;;15.77;74.31;99952.38;1088021;54;20058;-81
2021/09/13 04:31:47;;;;;;;4.45;2.70;;;;;;;15.82;73.93;99949.13;1087915;54;20037;-80
2021/09/13 04:32:51;;;;;;;4.85;3.17;;;;;;;15.79;73.93;99949.47;1087922;54;20019;-81
2021/09/13 04:33:55;;;;;;;5.70;2.72;;;;;;;15.81;73.87;99952.84;1088027;54;20031;-82
2021/09/13 04:34:57;;;;;;;5.22;2.75;;;;;;;15.80;74.11;99952.00;1089543;46;20950;-81
2021/09/13 04:36:01;;;;;;;6.20;2.70;;;;;;;15.82;74.03;99941.03;1087927;54;20034;-82
2021/09/13 04:37:05;;;;;;;4.97;2.70;;;;;;;15.87;73.74;99939.50;1087744;54;20038;-82
2021/09/13 04:38:07;;;;;;;4.38;2.70;;;;;;;15.85;74.09;99933.44;1087740;54;20039;-81
2021/09/13 04:39:11;;;;;;;4.80;2.72;;;;;;;15.87;73.74;99941.38;1088499;46;20038;-82
2021/09/13 04:40:14;;;;;;;4.85;3.10;;;;;;;15.80;73.93;99943.06;1088041;54;20022;-81
2021/09/13 04:41:18;;;;;;;7.93;3.10;;;;;;;15.83;74.03;99946.25;1087932;54;20035;-83
2021/09/13 04:42:19;;;;;;;4.95;2.75;;;;;;;15.86;74.10;99942.41;1087966;54;20031;-80
2021/09/13 04:43:24;;;;;;;5.82;3.15;;;;;;;15.84;73.90;99953.34;1087872;54;20030;-81
2021/09/13 04:44:28;;;;;;;6.05;3.22;;;;;;;15.79;73.89;99953.03;1088005;54;20034;-81
2021/09/13 04:45:29;;;;;;;7.78;3.35;;;;;;;15.82;74.27;99954.50;1087781;54;20031;-82
2021/09/13 04:46:33;;;;;;;5.47;2.95;;;;;;;15.84;74.08;99953.34;1087954;54;20030;-80
2021/09/13 04:47:35;;;;;;;5.60;3.38;;;;;;;15.85;74.05;99951.50;1091887;39;20188;-82
2021/09/13 04:48:42;;;;;;;5.07;3.10;;;;;;;15.86;73.94;99945.91;1088078;54;20031;-81
2021/09/13 04:49:43;;;;;;;7.38;3.90;;;;;;;15.82;74.14;99949.94;1087724;54;20045;-82
2021/09/13 04:50:47;;;;;;;6.80;3.03;;;;;;;15.76;73.99;99950.69;1088297;46;20031;-81
2021/09/13 04:51:49;;;;;;;5.88;3.70;;;;;;;15.75;74.22;99949.84;1087573;46;20108;-81
2021/09/13 04:52:53;;;;;;;5.38;2.92;;;;;;;15.79;74.04;99954.88;1086923;54;20036;-81
2021/09/13 04:53:57;;;;;;;5.18;3.10;;;;;;;15.83;73.87;99945.41;1087691;54;20035;-81
2021/09/13 04:55:02;;;;;;;5.72;2.60;;;;;;;15.85;73.95;99944.22;1087849;46;20030;-82
2021/09/13 04:56:05;;;;;;;4.53;2.63;;;;;;;15.83;73.90;99950.81;1087718;46;20043;-80
2021/09/13 04:57:09;;;;;;;5.03;2.72;;;;;;;15.80;73.84;99951.16;1087767;54;20070;-82
2021/09/13 04:58:11;;;;;;;5.88;3.08;;;;;;;15.78;74.02;99955.88;1087675;54;20042;-82
2021/09/13 04:59:16;;;;;;;5.85;3.35;;;;;;;15.71;74.03;99956.63;1088544;46;20034;-81
2021/09/13 05:00:21;;;;;;;7.90;4.55;;;;;;;15.55;74.69;99956.75;1089141;46;20043;-82
2021/09/13 05:01:25;;;;;;;6.32;3.63;;;;;;;15.59;74.75;99949.97;1088009;54;20042;-80
2021/09/13 05:02:27;;;;;;;8.10;3.33;;;;;;;15.54;74.72;99966.66;1088281;46;20042;-82
2021/09/13 05:03:31;;;;;;;5.25;3.50;;;;;;;15.51;74.52;99952.72;1088019;46;20031;-81
2021/09/13 05:04:38;;;;;;;6.25;3.25;;;;;;;15.52;74.81;99957.09;1088967;46;20030;-81
2021/09/13 05:05:40;;;;;;;7.93;3.30;;;;;;;15.53;74.51;99961.47;1087963;54;20030;-81
2021/09/13 05:06:44;;;;;;;4.53;2.95;;;;;;;15.55;74.35;99951.34;1088169;46;20037;-82
2021/09/13 05:07:45;;;;;;;7.28;3.03;;;;;;;15.56;74.58;99959.25;1087928;54;20065;-81
2021/09/13 05:08:50;;;;;;;5.78;3.22;;;;;;;15.59;74.28;99952.66;1088026;54;20090;-81
2021/09/13 05:09:51;;;;;;;4.75;2.72;;;;;;;15.59;74.57;99955.34;1088370;46;20027;-82
2021/09/13 05:10:55;;;;;;;6.85;3.13;;;;;;;15.59;74.58;99955.34;1087990;54;20026;-81
2021/09/13 05:11:57;;;;;;;4.78;2.83;;;;;;;15.55;74.66;99949.50;1088054;46;20113;-81
2021/09/13 05:13:01;;;;;;;5.68;2.75;;;;;;;15.59;74.28;99955.34;1087997;54;20098;-80
2021/09/13 05:14:02;;;;;;;5.28;2.95;;;;;;;15.62;74.38;99952.31;1088095;54;20037;-83
2021/09/13 05:15:08;;;;;;;5.28;3.03;;;;;;;15.64;73.95;99955.66;1088192;54;20037;-82
2021/09/13 05:16:10;;;;;;;4.97;2.90;;;;;;;15.63;74.31;99955.84;1088183;54;20030;-83
2021/09/13 05:17:14;;;;;;;6.20;3.20;;;;;;;15.62;74.17;99952.31;1088030;54;20026;-81
2021/09/13 05:18:18;;;;;;;4.97;2.75;;;;;;;15.64;74.12;99952.97;1088157;54;20045;-82
2021/09/13 05:19:20;;;;;;;5.38;2.85;;;;;;;15.62;74.05;99957.69;1088048;54;20038;-82
2021/09/13 05:20:27;;;;;;;8.60;3.85;;;;;;;15.62;74.11;99956.88;1088133;54;20030;-83
2021/09/13 05:21:29;;;;;;;5.63;2.80;;;;;;;15.62;73.95;99955.00;1088191;54;20750;-82
2021/09/13 05:22:35;;;;;;;8.38;3.00;;;;;;;15.62;73.98;99959.56;1088217;54;20030;-84
2021/09/13 05:23:36;;;;;;;5.28;2.75;;;;;;;15.59;74.35;99960.75;1088155;54;20052;-82
2021/09/13 05:24:41;;;;;;;5.55;2.80;;;;;;;15.63;74.20;99959.38;1088154;54;20034;-82
2021/09/13 05:25:43;;;;;;;6.13;2.95;;;;;;;15.61;74.23;99956.03;1088245;54;20038;-82
2021/09/13 05:26:47;;;;;;;7.43;3.28;;;;;;;15.63;73.98;99955.84;1088134;54;20143;-82
2021/09/13 05:27:48;;;;;;;5.15;3.20;;;;;;;15.63;74.33;99961.25;1088187;54;20034;-83
2021/09/13 05:28:52;;;;;;;7.03;3.13;;;;;;;15.63;73.93;99962.06;1088201;54;20045;-84
2021/09/13 05:29:54;;;;;;;6.75;3.40;;;;;;;15.64;73.75;99952.97;1088160;54;20034;-80
2021/09/13 05:30:58;;;;;;;7.38;4.10;;;;;;;15.60;73.91;99951.66;1088227;54;20015;-84
2021/09/13 05:32:00;;;;;;;8.25;3.88;;;;;;;15.64;73.97;99952.13;1088176;54;20038;-82
2021/09/13 05:33:04;;;;;;;6.38;3.30;;;;;;;15.60;73.82;99957.88;1088207;54;20203;-82
2021/09/13 05:34:06;;;;;;;6.00;3.60;;;;;;;15.59;74.18;99958.03;1088236;54;20026;-82
2021/09/13 05:35:11;;;;;;;9.25;3.95;;;;;;;15.60;74.26;99954.34;1088249;54;20015;-81
2021/09/13 05:36:17;;;;;;;6.53;3.40;;;;;;;15.64;73.90;99955.66;1088167;54;20038;-83
2021/09/13 05:37:19;;;;;;;5.50;3.13;;;;;;;15.63;73.81;99962.06;1087999;54;20026;-82
2021/09/13 05:38:23;;;;;;;5.32;3.08;;;;;;;15.68;73.80;99961.53;1087914;54;20034;-81
2021/09/13 05:39:25;;;;;;;4.63;2.33;;;;;;;15.71;73.54;99969.25;1087988;54;20057;-83
2021/09/13 05:40:29;;;;;;;5.47;2.50;;;;;;;15.75;73.66;99968.72;1087879;54;20031;-82
2021/09/13 05:41:31;;;;;;;6.55;3.30;;;;;;;15.69;73.61;99963.22;1087948;54;20033;-83
2021/09/13 05:42:35;;;;;;;7.65;3.60;;;;;;;15.69;73.86;99966.72;1088114;54;21004;-82
2021/09/13 05:43:36;;;;;;;8.77;3.85;;;;;;;15.69;73.77;99965.91;1088160;54;20014;-82
2021/09/13 05:44:42;;;;;;;7.10;3.75;;;;;;;15.72;73.51;99963.69;1088774;46;20050;-82
2021/09/13 05:45:43;;;;;;;6.80;3.50;;;;;;;15.69;73.65;99966.72;1088242;54;20039;-82
2021/09/13 05:46:47;;;;;;;5.72;3.13;;;;;;;15.74;73.50;99963.50;1088229;54;20030;-82
2021/09/13 05:47:51;;;;;;;6.18;3.22;;;;;;;15.78;73.68;99961.28;1089126;39;20660;-82
2021/09/13 05:48:53;;;;;;;8.88;3.60;;;;;;;15.82;73.58;99968.00;1088245;54;20023;-81
2021/09/13 05:49:59;;;;;;;7.18;3.03;;;;;;;15.87;73.28;99965.63;1088113;54;20955;-83
2021/09/13 05:51:00;;;;;;;5.25;3.17;;;;;;;15.87;73.27;99962.94;1088201;54;21160;-80
2021/09/13 05:52:08;;;;;;;8.85;3.60;;;;;;;15.85;73.48;99970.38;1088163;54;20034;-82
2021/09/13 05:53:12;;;;;;;7.00;3.20;;;;;;;15.82;73.59;99976.06;1087980;54;20034;-83